Time,TemperatureF,DewpointF,PressureIn,WindDirection,WindDirectionDegrees,WindSpeedMPH,WindSpeedGustMPH,Humidity,HourlyPrecipIn,Conditions,Clouds,dailyrainin,SoftwareType,DateUTC
2013-04-03 00:00:00,38.1,36.0,30.13,SE,125,0.0,0.0,92,0.00,,---,0.00,VWS V14.01,2013-04-03 06:00:00,
2013-04-03 00:01:00,38.1,36.0,30.13,SE,125,0.0,0.0,92,0.00,,---,0.00,VWS V14.01,2013-04-03 06:01:00,
2013-04-03 00:02:00,38.2,36.1,30.13,SE,125,0.0,0.0,92,0.00,,---,0.00,VWS V14.01,2013-04-03 06:02:00,
2013-04-03 00:03:00,37.4,35.3,30.13,SE,125,0.0,0.0,92,0.00,,---,0.00,VWS V14.01,2013-04-03 06:03:00,
2013-04-03 00:04:00,38.2,36.1,30.13,SE,125,0.0,0.0,92,0.00,,---,0.00,VWS V14.01,2013-04-03 06:04:00,
2013-04-03 00:05:00,38.2,36.1,30.13,SE,125,0.0,0.0,92,0.00,,---,0.00,VWS V14.01,2013-04-03 06:05:00,
2013-04-03 00:06:00,38.3,36.2,30.13,SE,125,0.0,0.0,92,0.00,,---,0.00,VWS V14.01,2013-04-03 06:06:00,
2013-04-03 00:07:00,38.3,36.2,30.13,SE,125,0.0,0.0,92,0.00,,---,0.00,VWS V14.01,2013-04-03 06:07:00,
2013-04-03 00:08:00,37.6,35.5,30.13,SE,125,0.0,0.0,92,0.00,,---,0.00,VWS V14.01,2013-04-03 06:08:00,
2013-04-03 00:09:00,40.4,36.3,30.10,NW,321,0.0,0.0,85,0.00,,---,0.01,VWS V14.01,2013-04-03 06:09:00,
2013-04-03 00:10:00,40.4,36.3,30.10,NW,321,0.0,0.0,85,0.00,,---,0.01,VWS V14.01,2013-04-03 06:10:00,
2013-04-03 00:11:00,40.4,36.3,30.10,NW,321,0.0,0.0,85,0.00,,---,0.01,VWS V14.01,2013-04-03 06:11:00,
2013-04-03 00:12:00,40.4,36.3,30.10,NNW,347,5.1,5.6,85,0.00,,---,0.01,VWS V14.01,2013-04-03 06:12:00,
2013-04-03 00:13:00,37.6,35.5,30.13,SE,125,0.0,0.0,92,0.00,,---,0.00,VWS V14.01,2013-04-03 06:13:00,
2013-04-03 00:14:00,40.3,36.2,30.10,North,350,5.5,5.7,85,0.00,,---,0.01,VWS V14.01,2013-04-03 06:14:00,
2013-04-03 00:15:00,40.3,36.2,30.10,North,6,0.0,0.0,85,0.00,,---,0.01,VWS V14.01,2013-04-03 06:15:00,
2013-04-03 00:16:00,40.3,36.2,30.10,NNE,25,0.0,0.0,85,0.00,,---,0.01,VWS V14.01,2013-04-03 06:16:00,
2013-04-03 00:17:00,40.2,36.2,30.10,NNW,343,5.1,6.3,85,0.00,,---,0.01,VWS V14.01,2013-04-03 06:17:00,
2013-04-03 00:18:00,37.6,35.5,30.13,SE,125,0.0,0.0,92,0.00,,---,0.00,VWS V14.01,2013-04-03 06:18:00,
2013-04-03 00:19:00,40.2,36.2,30.10,NNW,333,0.0,0.0,85,0.00,,---,0.01,VWS V14.01,2013-04-03 06:19:00,
2013-04-03 00:20:00,40.2,36.2,30.10,NNW,342,0.0,0.0,86,0.00,,---,0.01,VWS V14.01,2013-04-03 06:20:00,
2013-04-03 00:21:00,40.2,36.2,30.10,NNW,336,0.0,0.0,86,0.00,,---,0.01,VWS V14.01,2013-04-03 06:21:00,
2013-04-03 00:22:00,40.2,36.2,30.10,NNW,335,5.3,5.3,85,0.00,,---,0.01,VWS V14.01,2013-04-03 06:22:00,
2013-04-03 00:23:00,37.7,35.6,30.13,SE,125,0.0,0.0,92,0.00,,---,0.00,VWS V14.01,2013-04-03 06:23:00,
2013-04-03 00:24:00,40.1,36.1,30.10,NNW,346,0.0,0.0,86,0.00,,---,0.01,VWS V14.01,2013-04-03 06:24:00,
2013-04-03 00:25:00,40.1,36.2,30.10,North,353,0.0,0.0,86,0.00,,---,0.01,VWS V14.01,2013-04-03 06:25:00,
2013-04-03 00:26:00,40.1,36.2,30.10,North,353,0.0,0.0,86,0.00,,---,0.01,VWS V14.01,2013-04-03 06:26:00,
2013-04-03 00:27:00,40.1,36.2,30.10,North,353,0.0,0.0,86,0.00,,---,0.01,VWS V14.01,2013-04-03 06:27:00,
2013-04-03 00:28:00,37.7,35.6,30.13,SE,125,0.0,0.0,92,0.00,,---,0.00,VWS V14.01,2013-04-03 06:28:00,
2013-04-03 00:29:00,40.1,36.3,30.10,North,353,0.0,0.0,86,0.00,,---,0.01,VWS V14.01,2013-04-03 06:29:00,
2013-04-03 00:30:00,40.1,36.3,30.10,North,353,0.0,0.0,86,0.00,,---,0.01,VWS V14.01,2013-04-03 06:30:00,
2013-04-03 00:31:00,40.0,36.1,30.10,North,3,4.3,4.8,86,0.00,,---,0.01,VWS V14.01,2013-04-03 06:31:00,
2013-04-03 00:32:00,40.0,36.1,30.10,NNE,18,0.0,0.0,86,0.00,,---,0.01,VWS V14.01,2013-04-03 06:32:00,
2013-04-03 00:33:00,37.7,35.6,30.13,SE,125,0.0,0.0,92,0.00,,---,0.00,VWS V14.01,2013-04-03 06:33:00,
2013-04-03 00:34:00,39.9,36.1,30.10,NNW,335,4.8,5.5,86,0.00,,---,0.01,VWS V14.01,2013-04-03 06:34:00,
2013-04-03 00:35:00,39.9,36.2,30.09,NNW,332,0.0,0.0,86,0.00,,---,0.01,VWS V14.01,2013-04-03 06:35:00,
2013-04-03 00:36:00,39.9,36.2,30.09,NNW,347,3.2,3.2,86,0.00,,---,0.01,VWS V14.01,2013-04-03 06:36:00,
2013-04-03 00:37:00,39.9,36.2,30.09,North,359,3.3,5.2,86,0.00,,---,0.01,VWS V14.01,2013-04-03 06:37:00,
2013-04-03 00:38:00,37.9,35.8,30.13,SE,125,0.0,0.0,92,0.00,,---,0.00,VWS V14.01,2013-04-03 06:38:00,
2013-04-03 00:39:00,39.8,36.1,30.09,North,359,0.0,0.0,87,0.00,,---,0.01,VWS V14.01,2013-04-03 06:39:00,
2013-04-03 00:40:00,39.9,36.3,30.09,North,359,0.0,0.0,87,0.00,,---,0.01,VWS V14.01,2013-04-03 06:40:00,
2013-04-03 00:41:00,39.8,36.1,30.09,North,359,0.0,0.0,87,0.00,,---,0.01,VWS V14.01,2013-04-03 06:41:00,
2013-04-03 00:42:00,39.8,36.2,30.09,North,359,0.0,3.0,87,0.00,,---,0.01,VWS V14.01,2013-04-03 06:42:00,
2013-04-03 00:43:00,37.9,35.8,30.13,SE,125,0.0,0.0,92,0.00,,---,0.00,VWS V14.01,2013-04-03 06:43:00,
2013-04-03 00:44:00,39.7,36.1,30.09,NE,34,2.2,5.4,87,0.00,,---,0.01,VWS V14.01,2013-04-03 06:44:00,
2013-04-03 00:45:00,39.7,36.1,30.09,North,352,0.0,0.0,87,0.00,,---,0.01,VWS V14.01,2013-04-03 06:45:00,
2013-04-03 00:46:00,39.6,36.0,30.09,North,6,3.1,4.6,87,0.00,,---,0.01,VWS V14.01,2013-04-03 06:46:00,
2013-04-03 00:47:00,39.6,36.0,30.09,North,7,7.9,8.9,87,0.00,,---,0.01,VWS V14.01,2013-04-03 06:47:00,
2013-04-03 00:48:00,37.9,35.8,30.13,SE,125,0.0,0.0,92,0.00,,---,0.00,VWS V14.01,2013-04-03 06:48:00,
2013-04-03 00:49:00,39.5,36.0,30.09,NNE,13,5.1,5.8,87,0.00,,---,0.01,VWS V14.01,2013-04-03 06:49:00,
2013-04-03 00:50:00,39.5,36.0,30.09,NNE,15,5.5,6.3,87,0.00,,---,0.01,VWS V14.01,2013-04-03 06:50:00,
2013-04-03 00:51:00,39.4,35.9,30.09,NNE,27,0.0,4.3,87,0.00,,---,0.01,VWS V14.01,2013-04-03 06:51:00,
2013-04-03 00:52:00,39.4,36.0,30.09,ESE,104,0.0,0.0,87,0.00,,---,0.01,VWS V14.01,2013-04-03 06:52:00,
2013-04-03 00:53:00,38.0,35.9,30.13,SE,125,0.0,0.0,92,0.00,,---,0.00,VWS V14.01,2013-04-03 06:53:00,
2013-04-03 00:54:00,39.4,36.0,30.09,NNE,17,5.3,8.6,87,0.00,,---,0.01,VWS V14.01,2013-04-03 06:54:00,
2013-04-03 00:55:00,39.3,35.9,30.09,NNW,343,0.0,0.0,87,0.00,,---,0.01,VWS V14.01,2013-04-03 06:55:00,
2013-04-03 00:56:00,39.3,35.8,30.09,NNW,343,0.0,0.0,87,0.00,,---,0.01,VWS V14.01,2013-04-03 06:56:00,
2013-04-03 00:57:00,39.2,35.8,30.09,NNW,343,0.0,0.0,87,0.00,,---,0.01,VWS V14.01,2013-04-03 06:57:00,
2013-04-03 00:58:00,38.0,35.9,30.13,SE,125,0.0,0.0,92,0.00,,---,0.00,VWS V14.01,2013-04-03 06:58:00,
2013-04-03 00:59:00,39.2,35.8,30.09,NNW,343,0.0,0.0,88,0.00,,---,0.01,VWS V14.01,2013-04-03 06:59:00,
2013-04-03 01:08:00,38.3,36.2,30.13,SE,125,0.0,0.0,92,0.00,,---,0.00,VWS V14.01,2013-04-03 07:08:00,
2013-04-03 01:13:00,38.3,36.2,30.13,SE,125,0.0,0.0,92,0.00,,---,0.00,VWS V14.01,2013-04-03 07:13:00,
2013-04-03 01:18:00,38.2,36.1,30.13,SE,125,0.0,0.0,92,0.00,,---,0.00,VWS V14.01,2013-04-03 07:18:00,
2013-04-03 01:23:00,38.3,36.2,30.13,SE,125,0.0,0.0,92,0.00,,---,0.00,VWS V14.01,2013-04-03 07:23:00,
2013-04-03 01:28:00,38.3,36.2,30.13,SE,125,0.0,0.0,92,0.00,,---,0.00,VWS V14.01,2013-04-03 07:28:00,
2013-04-03 01:33:00,38.5,36.4,30.13,SE,125,0.0,0.0,92,0.00,,---,0.00,VWS V14.01,2013-04-03 07:33:00,
2013-04-03 01:38:00,38.5,36.4,30.13,SE,125,0.0,0.0,92,0.00,,---,0.00,VWS V14.01,2013-04-03 07:38:00,
2013-04-03 01:43:00,38.6,36.5,30.13,SE,125,0.0,0.0,92,0.00,,---,0.00,VWS V14.01,2013-04-03 07:43:00,
2013-04-03 01:48:00,38.5,36.4,30.13,SE,125,0.0,0.0,92,0.00,,---,0.00,VWS V14.01,2013-04-03 07:48:00,
2013-04-03 01:53:00,38.5,36.4,30.13,SE,125,0.0,0.0,92,0.00,,---,0.00,VWS V14.01,2013-04-03 07:53:00,
2013-04-03 01:58:00,38.5,36.4,30.13,SE,125,0.0,0.0,92,0.00,,---,0.00,VWS V14.01,2013-04-03 07:58:00,
2013-04-03 02:03:00,38.6,36.5,30.12,SE,125,0.0,0.0,92,0.00,,---,0.00,VWS V14.01,2013-04-03 08:03:00,
2013-04-03 02:08:00,38.6,36.5,30.12,SE,125,0.0,0.0,92,0.00,,---,0.00,VWS V14.01,2013-04-03 08:08:00,
2013-04-03 02:13:00,38.6,36.5,30.12,SE,125,0.0,0.0,92,0.00,,---,0.00,VWS V14.01,2013-04-03 08:13:00,
2013-04-03 02:18:00,38.6,36.5,30.12,SE,125,0.0,0.0,92,0.00,,---,0.00,VWS V14.01,2013-04-03 08:18:00,
2013-04-03 02:23:00,38.7,36.6,30.12,SE,125,0.0,0.0,92,0.00,,---,0.00,VWS V14.01,2013-04-03 08:23:00,
2013-04-03 02:28:00,38.7,36.6,30.12,SE,125,0.0,0.0,92,0.00,,---,0.00,VWS V14.01,2013-04-03 08:28:00,
2013-04-03 02:33:00,38.7,36.6,30.12,SE,125,0.0,0.0,92,0.00,,---,0.00,VWS V14.01,2013-04-03 08:33:00,
2013-04-03 02:38:00,38.7,36.6,30.12,SE,125,0.0,0.0,92,0.00,,---,0.00,VWS V14.01,2013-04-03 08:38:00,
2013-04-03 02:43:00,38.6,36.5,30.12,SE,125,0.0,0.0,92,0.00,,---,0.00,VWS V14.01,2013-04-03 08:43:00,
2013-04-03 02:48:00,38.7,36.6,30.12,SE,125,0.0,0.0,92,0.00,,---,0.00,VWS V14.01,2013-04-03 08:48:00,
2013-04-03 02:53:00,38.8,36.7,30.12,SE,125,0.0,0.0,92,0.00,,---,0.00,VWS V14.01,2013-04-03 08:53:00,
2013-04-03 02:58:00,38.9,36.8,30.12,SE,125,0.0,0.0,92,0.00,,---,0.00,VWS V14.01,2013-04-03 08:58:00,
2013-04-03 03:04:00,38.8,36.7,30.12,SE,125,0.0,0.0,92,0.00,,---,0.00,VWS V14.01,2013-04-03 09:04:00,
2013-04-03 03:09:00,38.8,36.7,30.12,SE,125,0.0,0.0,92,0.00,,---,0.00,VWS V14.01,2013-04-03 09:09:00,
2013-04-03 03:14:00,38.8,36.7,30.12,SE,125,0.0,0.0,92,0.00,,---,0.00,VWS V14.01,2013-04-03 09:14:00,
2013-04-03 03:19:00,38.8,36.7,30.11,SE,125,0.0,0.0,92,0.00,,---,0.00,VWS V14.01,2013-04-03 09:19:00,
2013-04-03 03:24:00,38.8,36.7,30.11,SE,125,0.0,0.0,92,0.00,,---,0.00,VWS V14.01,2013-04-03 09:24:00,
2013-04-03 03:29:00,38.8,36.7,30.11,SE,125,0.0,0.0,92,0.00,,---,0.00,VWS V14.01,2013-04-03 09:29:00,
2013-04-03 03:34:00,38.7,36.6,30.11,SE,125,0.0,0.0,92,0.00,,---,0.00,VWS V14.01,2013-04-03 09:34:00,
2013-04-03 03:39:00,38.7,36.6,30.11,SE,125,0.0,0.0,92,0.00,,---,0.00,VWS V14.01,2013-04-03 09:39:00,
2013-04-03 03:44:00,38.6,36.5,30.11,SE,125,0.0,0.0,92,0.00,,---,0.00,VWS V14.01,2013-04-03 09:44:00,
2013-04-03 03:49:00,38.6,36.5,30.11,SE,125,0.0,0.0,92,0.00,,---,0.00,VWS V14.01,2013-04-03 09:49:00,
2013-04-03 03:54:00,38.5,36.4,30.11,SE,125,0.0,0.0,92,0.00,,---,0.00,VWS V14.01,2013-04-03 09:54:00,
2013-04-03 03:59:00,38.5,36.4,30.11,SE,125,0.0,0.0,92,0.00,,---,0.00,VWS V14.01,2013-04-03 09:59:00,
2013-04-03 04:04:00,38.6,36.5,30.11,SE,125,0.0,0.0,92,0.00,,---,0.00,VWS V14.01,2013-04-03 10:04:00,
2013-04-03 04:09:00,38.7,36.6,30.11,SE,125,0.0,0.0,92,0.00,,---,0.00,VWS V14.01,2013-04-03 10:09:00,
2013-04-03 04:14:00,38.7,36.6,30.11,SE,125,0.0,0.0,92,0.00,,---,0.00,VWS V14.01,2013-04-03 10:14:00,
2013-04-03 04:19:00,38.7,36.6,30.12,SE,125,0.0,0.0,92,0.00,,---,0.00,VWS V14.01,2013-04-03 10:19:00,
2013-04-03 04:24:00,38.7,36.6,30.12,SE,125,0.0,0.0,92,0.00,,---,0.00,VWS V14.01,2013-04-03 10:24:00,
2013-04-03 04:29:00,38.7,36.6,30.12,SE,125,0.0,0.0,92,0.00,,---,0.00,VWS V14.01,2013-04-03 10:29:00,
2013-04-03 04:34:00,38.6,36.5,30.12,SE,125,0.0,0.0,92,0.00,,---,0.00,VWS V14.01,2013-04-03 10:34:00,
2013-04-03 04:39:00,38.7,36.6,30.12,SE,125,0.0,0.0,92,0.00,,---,0.00,VWS V14.01,2013-04-03 10:39:00,
2013-04-03 04:44:00,38.7,36.6,30.11,SE,125,0.0,0.0,92,0.00,,---,0.00,VWS V14.01,2013-04-03 10:44:00,
2013-04-03 04:49:00,38.7,36.6,30.11,SE,125,0.0,0.0,92,0.00,,---,0.00,VWS V14.01,2013-04-03 10:49:00,
2013-04-03 04:54:00,38.7,36.6,30.12,SE,125,0.0,0.0,92,0.00,,---,0.00,VWS V14.01,2013-04-03 10:54:00,
2013-04-03 04:59:00,38.7,36.6,30.12,SE,125,0.0,0.0,92,0.00,,---,0.00,VWS V14.01,2013-04-03 10:59:00,
2013-04-03 05:04:00,38.6,36.5,30.12,SE,125,0.0,0.0,92,0.00,,---,0.00,VWS V14.01,2013-04-03 11:04:00,
2013-04-03 05:09:00,38.7,36.6,30.12,SE,125,0.0,0.0,92,0.00,,---,0.00,VWS V14.01,2013-04-03 11:09:00,
2013-04-03 05:14:00,38.8,36.7,30.12,SE,125,0.0,0.0,92,0.00,,---,0.00,VWS V14.01,2013-04-03 11:14:00,
2013-04-03 05:19:00,38.8,36.7,30.12,SE,125,0.0,0.0,92,0.00,,---,0.00,VWS V14.01,2013-04-03 11:19:00,
2013-04-03 05:24:00,38.7,36.6,30.12,SE,125,0.0,0.0,92,0.00,,---,0.00,VWS V14.01,2013-04-03 11:24:00,
2013-04-03 05:29:00,38.6,36.5,30.12,SE,125,0.0,0.0,92,0.00,,---,0.00,VWS V14.01,2013-04-03 11:29:00,
2013-04-03 05:34:00,38.4,36.3,30.12,SE,125,0.0,0.0,92,0.00,,---,0.00,VWS V14.01,2013-04-03 11:34:00,
2013-04-03 05:39:00,38.2,36.1,30.12,SE,125,0.0,0.0,92,0.00,,---,0.00,VWS V14.01,2013-04-03 11:39:00,
2013-04-03 05:44:00,38.1,36.0,30.12,SE,125,0.0,0.0,92,0.00,,---,0.00,VWS V14.01,2013-04-03 11:44:00,
2013-04-03 05:49:00,38.1,36.0,30.12,SE,125,0.0,0.0,92,0.00,,---,0.00,VWS V14.01,2013-04-03 11:49:00,
2013-04-03 05:54:00,38.1,36.0,30.12,SE,125,0.0,0.0,92,0.00,,---,0.00,VWS V14.01,2013-04-03 11:54:00,
2013-04-03 05:59:00,38.0,35.9,30.12,SE,125,0.0,0.0,92,0.00,,---,0.00,VWS V14.01,2013-04-03 11:59:00,
2013-04-03 06:04:00,37.8,35.7,30.12,SE,125,0.0,0.0,92,0.00,,---,0.00,VWS V14.01,2013-04-03 12:04:00,
2013-04-03 06:09:00,37.8,35.7,30.12,SE,125,0.0,0.0,92,0.00,,---,0.00,VWS V14.01,2013-04-03 12:09:00,
2013-04-03 06:14:00,37.8,35.7,30.12,SE,125,0.0,0.0,92,0.00,,---,0.00,VWS V14.01,2013-04-03 12:14:00,
2013-04-03 06:19:00,37.9,35.8,30.13,SE,125,0.0,0.0,92,0.00,,---,0.00,VWS V14.01,2013-04-03 12:19:00,
2013-04-03 06:24:00,37.9,35.8,30.13,SE,125,0.0,0.0,92,0.00,,---,0.00,VWS V14.01,2013-04-03 12:24:00,
2013-04-03 06:29:00,37.9,35.8,30.13,SE,125,0.0,0.0,92,0.00,,---,0.00,VWS V14.01,2013-04-03 12:29:00,
2013-04-03 06:35:00,37.9,35.8,30.13,SE,125,0.0,0.0,92,0.00,,---,0.00,VWS V14.01,2013-04-03 12:35:00,
2013-04-03 06:40:00,37.8,35.7,30.13,SE,125,0.0,0.0,92,0.00,,---,0.00,VWS V14.01,2013-04-03 12:40:00,
2013-04-03 06:45:00,37.8,35.7,30.13,SE,125,0.0,0.0,92,0.00,,---,0.00,VWS V14.01,2013-04-03 12:45:00,
2013-04-03 06:50:00,37.8,35.7,30.13,SE,125,0.0,0.0,92,0.00,,---,0.00,VWS V14.01,2013-04-03 12:50:00,
2013-04-03 06:55:00,37.9,35.8,30.13,SE,125,0.0,0.0,92,0.00,,---,0.00,VWS V14.01,2013-04-03 12:55:00,
2013-04-03 07:00:00,38.0,35.9,30.14,SE,125,0.0,0.0,92,0.00,,---,0.00,VWS V14.01,2013-04-03 13:00:00,
2013-04-03 07:05:00,38.1,36.0,30.14,SE,125,0.0,0.0,92,0.00,,---,0.00,VWS V14.01,2013-04-03 13:05:00,
2013-04-03 07:10:00,38.1,36.0,30.14,SE,125,0.0,0.0,92,0.00,,---,0.00,VWS V14.01,2013-04-03 13:10:00,
2013-04-03 07:15:00,38.2,36.1,30.14,SE,125,0.0,0.0,92,0.00,,---,0.00,VWS V14.01,2013-04-03 13:15:00,
2013-04-03 07:20:00,38.3,36.2,30.15,SE,125,0.0,0.0,92,0.00,,---,0.00,VWS V14.01,2013-04-03 13:20:00,
2013-04-03 07:25:00,38.4,36.3,30.15,ENE,59,0.0,0.0,92,0.00,,---,0.00,VWS V14.01,2013-04-03 13:25:00,
2013-04-03 07:30:00,38.2,36.1,30.15,NE,55,0.0,0.0,92,0.00,,---,0.00,VWS V14.01,2013-04-03 13:30:00,
2013-04-03 07:35:00,38.2,36.1,30.15,NE,55,0.0,0.0,92,0.00,,---,0.00,VWS V14.01,2013-04-03 13:35:00,
2013-04-03 07:40:00,38.0,35.9,30.15,NE,55,0.0,0.0,92,0.00,,---,0.00,VWS V14.01,2013-04-03 13:40:00,
2013-04-03 07:45:00,38.1,36.0,30.15,NE,55,0.0,0.0,92,0.00,,---,0.00,VWS V14.01,2013-04-03 13:45:00,
2013-04-03 07:50:00,38.2,36.1,30.15,NE,55,0.0,0.0,92,0.00,,---,0.00,VWS V14.01,2013-04-03 13:50:00,
2013-04-03 07:55:00,38.2,36.1,30.15,NE,55,0.0,0.0,92,0.00,,---,0.00,VWS V14.01,2013-04-03 13:55:00,
2013-04-03 08:00:00,38.3,36.2,30.15,NE,55,0.0,0.0,92,0.00,,---,0.00,VWS V14.01,2013-04-03 14:00:00,
2013-04-03 08:05:00,38.3,36.2,30.15,NE,55,0.0,0.0,92,0.00,,---,0.00,VWS V14.01,2013-04-03 14:05:00,
2013-04-03 08:10:00,38.4,36.3,30.16,NE,55,0.0,0.0,92,0.00,,---,0.00,VWS V14.01,2013-04-03 14:10:00,
2013-04-03 08:15:00,38.3,36.2,30.15,NE,55,0.0,0.0,92,0.00,,---,0.00,VWS V14.01,2013-04-03 14:15:00,
2013-04-03 08:20:00,38.5,36.4,30.15,NE,55,0.0,0.0,92,0.00,,---,0.00,VWS V14.01,2013-04-03 14:20:00,
2013-04-03 08:25:00,38.7,36.6,30.15,NE,55,0.0,0.0,92,0.00,,---,0.00,VWS V14.01,2013-04-03 14:25:00,
2013-04-03 08:30:00,38.8,36.7,30.15,NE,55,0.0,0.0,92,0.00,,---,0.00,VWS V14.01,2013-04-03 14:30:00,
2013-04-03 08:35:00,39.1,37.0,30.15,NE,55,0.0,0.0,92,0.00,,---,0.00,VWS V14.01,2013-04-03 14:35:00,
2013-04-03 08:40:00,39.3,37.2,30.16,NE,55,0.0,0.0,92,0.00,,---,0.00,VWS V14.01,2013-04-03 14:40:00,
2013-04-03 08:45:00,39.5,37.4,30.16,NE,55,0.0,0.0,92,0.00,,---,0.00,VWS V14.01,2013-04-03 14:45:00,
2013-04-03 08:50:00,39.5,37.4,30.16,NE,55,0.0,0.0,92,0.00,,---,0.00,VWS V14.01,2013-04-03 14:50:00,
2013-04-03 08:55:00,39.5,37.4,30.16,NE,55,0.0,0.0,92,0.00,,---,0.00,VWS V14.01,2013-04-03 14:55:00,
2013-04-03 09:00:00,39.7,37.6,30.16,NE,55,0.0,0.0,92,0.00,,---,0.00,VWS V14.01,2013-04-03 15:00:00,
2013-04-03 09:05:00,39.8,37.7,30.17,NE,55,0.0,0.0,92,0.00,,---,0.00,VWS V14.01,2013-04-03 15:05:00,
2013-04-03 09:10:00,39.8,37.7,30.16,NE,55,0.0,0.0,92,0.00,,---,0.00,VWS V14.01,2013-04-03 15:10:00,
2013-04-03 09:15:00,39.8,37.7,30.16,NE,55,0.0,0.0,92,0.00,,---,0.00,VWS V14.01,2013-04-03 15:15:00,
2013-04-03 09:20:00,39.9,37.8,30.16,NE,55,0.0,0.0,92,0.00,,---,0.00,VWS V14.01,2013-04-03 15:20:00,
2013-04-03 09:25:00,40.3,38.2,30.16,NE,55,0.0,0.0,92,0.00,,---,0.00,VWS V14.01,2013-04-03 15:25:00,
2013-04-03 09:30:00,40.6,38.5,30.16,NE,55,0.0,0.0,92,0.00,,---,0.00,VWS V14.01,2013-04-03 15:30:00,
2013-04-03 09:35:00,40.8,38.7,30.16,NE,55,0.0,0.0,92,0.00,,---,0.00,VWS V14.01,2013-04-03 15:35:00,
2013-04-03 09:40:00,41.0,38.9,30.16,NE,55,0.0,0.0,92,0.00,,---,0.00,VWS V14.01,2013-04-03 15:40:00,
2013-04-03 09:45:00,41.2,39.1,30.15,NE,55,0.0,0.0,92,0.00,,---,0.00,VWS V14.01,2013-04-03 15:45:00,
2013-04-03 09:50:00,41.6,39.5,30.15,NE,55,0.0,0.0,92,0.00,,---,0.00,VWS V14.01,2013-04-03 15:50:00,
2013-04-03 09:55:00,42.1,40.0,30.15,NE,55,0.0,0.0,92,0.00,,---,0.00,VWS V14.01,2013-04-03 15:55:00,
2013-04-03 10:00:00,42.6,40.4,30.15,South,183,0.0,0.0,92,0.00,,---,0.00,VWS V14.01,2013-04-03 16:00:00,
2013-04-03 10:06:00,43.1,40.9,30.15,South,183,0.0,0.0,92,0.00,,---,0.00,VWS V14.01,2013-04-03 16:06:00,
2013-04-03 10:11:00,43.5,40.9,30.15,South,183,0.0,0.0,90,0.00,,---,0.00,VWS V14.01,2013-04-03 16:11:00,
2013-04-03 10:16:00,44.0,41.3,30.15,SW,224,0.0,0.0,90,0.00,,---,0.00,VWS V14.01,2013-04-03 16:16:00,
2013-04-03 10:21:00,44.6,41.7,30.15,SW,233,0.0,0.0,90,0.00,,---,0.00,VWS V14.01,2013-04-03 16:21:00,
2013-04-03 10:26:00,45.1,42.1,30.14,SW,233,0.0,0.0,89,0.00,,---,0.00,VWS V14.01,2013-04-03 16:26:00,
2013-04-03 10:31:00,45.4,42.1,30.15,South,191,2.5,3.4,88,0.00,,---,0.00,VWS V14.01,2013-04-03 16:31:00,
2013-04-03 10:37:00,45.6,42.2,30.15,SW,236,0.0,0.0,88,0.00,,---,0.00,VWS V14.01,2013-04-03 16:37:00,
2013-04-03 10:42:00,45.8,42.0,30.15,SW,236,0.0,0.0,87,0.00,,---,0.00,VWS V14.01,2013-04-03 16:42:00,
2013-04-03 10:47:00,45.8,41.6,30.15,SW,236,0.0,0.0,85,0.00,,---,0.00,VWS V14.01,2013-04-03 16:47:00,
2013-04-03 10:52:00,46.0,42.0,30.14,SW,236,0.0,0.0,86,0.00,,---,0.00,VWS V14.01,2013-04-03 16:52:00,
2013-04-03 10:57:00,46.6,42.4,30.14,WSW,252,3.2,4.3,85,0.00,,---,0.00,VWS V14.01,2013-04-03 16:57:00,
2013-04-03 11:02:00,47.1,42.5,30.14,SSW,204,0.0,0.0,84,0.00,,---,0.00,VWS V14.01,2013-04-03 17:02:00,
2013-04-03 11:07:00,47.7,43.1,30.14,West,271,4.3,4.6,84,0.00,,---,0.00,VWS V14.01,2013-04-03 17:07:00,
2013-04-03 11:12:00,48.3,43.3,30.14,NW,322,0.0,0.0,83,0.00,,---,0.00,VWS V14.01,2013-04-03 17:12:00,
2013-04-03 11:18:00,47.6,41.8,30.14,NE,52,2.9,4.3,80,0.00,,---,0.00,VWS V14.01,2013-04-03 17:18:00,
2013-04-03 11:23:00,47.3,41.5,30.13,NE,45,0.0,0.0,80,0.00,,---,0.00,VWS V14.01,2013-04-03 17:23:00,
2013-04-03 11:28:00,47.8,42.0,30.13,NE,45,0.0,0.0,80,0.00,,---,0.00,VWS V14.01,2013-04-03 17:28:00,
2013-04-03 11:33:00,48.2,41.8,30.13,NE,45,0.0,0.0,78,0.00,,---,0.00,VWS V14.01,2013-04-03 17:33:00,
2013-04-03 11:38:00,48.5,41.7,30.14,NE,45,0.0,0.0,77,0.00,,---,0.00,VWS V14.01,2013-04-03 17:38:00,
2013-04-03 11:43:00,49.0,41.6,30.14,ESE,103,5.5,5.5,76,0.00,,---,0.00,VWS V14.01,2013-04-03 17:43:00,
2013-04-03 11:48:00,49.2,41.3,30.14,ENE,65,0.0,0.0,74,0.00,,---,0.00,VWS V14.01,2013-04-03 17:48:00,
2013-04-03 11:53:00,49.6,41.7,30.14,ENE,65,0.0,0.0,74,0.00,,---,0.00,VWS V14.01,2013-04-03 17:53:00,
2013-04-03 11:58:00,50.5,42.0,30.13,ENE,65,0.0,0.0,73,0.00,,---,0.00,VWS V14.01,2013-04-03 17:58:00,
2013-04-03 12:03:00,51.2,42.3,30.13,WNW,288,0.0,0.0,71,0.00,,---,0.00,VWS V14.01,2013-04-03 18:03:00,
2013-04-03 12:08:00,51.4,41.4,30.13,WNW,288,0.0,0.0,68,0.00,,---,0.00,VWS V14.01,2013-04-03 18:08:00,
2013-04-03 12:13:00,51.6,41.4,30.13,WNW,288,0.0,0.0,68,0.00,,---,0.00,VWS V14.01,2013-04-03 18:13:00,
2013-04-03 12:18:00,51.6,39.5,30.13,NNE,15,5.8,5.8,63,0.00,,---,0.00,VWS V14.01,2013-04-03 18:18:00,
2013-04-03 12:23:00,51.3,38.5,30.12,NNE,25,0.0,0.0,61,0.00,,---,0.00,VWS V14.01,2013-04-03 18:23:00,
2013-04-03 12:28:00,51.6,39.9,30.12,East,82,1.5,3.0,64,0.00,,---,0.00,VWS V14.01,2013-04-03 18:28:00,
2013-04-03 12:33:00,52.3,41.1,30.12,West,263,0.0,0.0,65,0.00,,---,0.00,VWS V14.01,2013-04-03 18:33:00,
2013-04-03 12:38:00,53.2,41.1,30.12,West,263,2.5,2.5,63,0.00,,---,0.00,VWS V14.01,2013-04-03 18:38:00,
2013-04-03 12:43:00,53.7,40.1,30.12,South,187,5.0,5.8,60,0.00,,---,0.00,VWS V14.01,2013-04-03 18:43:00,
2013-04-03 12:48:00,54.2,41.7,30.11,SE,142,6.2,6.2,62,0.00,,---,0.00,VWS V14.01,2013-04-03 18:48:00,
2013-04-03 12:53:00,54.3,37.4,30.12,East,83,0.0,0.0,53,0.00,,---,0.00,VWS V14.01,2013-04-03 18:53:00,
2013-04-03 12:58:00,53.9,37.1,30.12,East,83,0.0,0.0,53,0.00,,---,0.00,VWS V14.01,2013-04-03 18:58:00,
2013-04-03 13:04:00,54.4,38.5,30.12,SSE,167,3.2,4.3,55,0.00,,---,0.00,VWS V14.01,2013-04-03 19:04:00,
2013-04-03 13:09:00,54.8,38.0,30.12,NNE,31,0.0,0.0,53,0.00,,---,0.00,VWS V14.01,2013-04-03 19:09:00,
2013-04-03 13:14:00,54.6,35.9,30.12,ESE,114,6.1,7.3,49,0.00,,---,0.00,VWS V14.01,2013-04-03 19:14:00,
2013-04-03 13:19:00,54.4,34.7,30.11,ENE,75,0.0,0.0,47,0.00,,---,0.00,VWS V14.01,2013-04-03 19:19:00,
2013-04-03 13:24:00,54.4,33.9,30.11,North,3,4.8,4.8,46,0.00,,---,0.00,VWS V14.01,2013-04-03 19:24:00,
2013-04-03 13:29:00,54.1,35.0,30.11,NW,311,0.0,2.5,48,0.00,,---,0.00,VWS V14.01,2013-04-03 19:29:00,
2013-04-03 13:34:00,54.6,36.2,30.11,SSE,159,0.0,0.0,50,0.00,,---,0.00,VWS V14.01,2013-04-03 19:34:00,
2013-04-03 13:39:00,55.4,35.2,30.11,NNE,17,5.0,7.8,46,0.00,,---,0.00,VWS V14.01,2013-04-03 19:39:00,
2013-04-03 13:44:00,55.3,33.7,30.11,ENE,68,0.0,0.0,44,0.00,,---,0.00,VWS V14.01,2013-04-03 19:44:00,
2013-04-03 13:49:00,55.5,33.8,30.11,NNE,14,0.0,3.0,44,0.00,,---,0.00,VWS V14.01,2013-04-03 19:49:00,
2013-04-03 13:55:00,55.8,34.5,30.10,NNE,14,0.0,0.0,44,0.00,,---,0.00,VWS V14.01,2013-04-03 19:55:00,
2013-04-03 14:00:00,56.5,33.6,30.10,East,101,6.9,9.8,42,0.00,,---,0.00,VWS V14.01,2013-04-03 20:00:00,
2013-04-03 14:05:00,56.4,32.4,30.10,SE,127,0.0,0.0,40,0.00,,---,0.00,VWS V14.01,2013-04-03 20:05:00,
2013-04-03 14:10:00,56.6,32.3,30.10,ESE,122,3.3,4.2,40,0.00,,---,0.00,VWS V14.01,2013-04-03 20:10:00,
2013-04-03 14:15:00,56.7,27.8,30.10,NNE,18,0.0,5.2,33,0.00,,---,0.00,VWS V14.01,2013-04-03 20:15:00,
2013-04-03 14:20:00,56.6,28.7,30.10,NNW,328,6.6,6.6,34,0.00,,---,0.00,VWS V14.01,2013-04-03 20:20:00,
2013-04-03 14:25:00,56.5,28.9,30.10,NE,39,6.5,7.2,34,0.00,,---,0.00,VWS V14.01,2013-04-03 20:25:00,
2013-04-03 14:30:00,56.7,29.0,30.10,NE,42,4.5,7.7,34,0.00,,---,0.00,VWS V14.01,2013-04-03 20:30:00,
2013-04-03 14:35:00,57.1,29.4,30.10,ENE,66,0.0,5.3,34,0.00,,---,0.00,VWS V14.01,2013-04-03 20:35:00,
2013-04-03 14:40:00,57.4,28.7,30.10,ENE,68,0.0,3.5,33,0.00,,---,0.00,VWS V14.01,2013-04-03 20:40:00,
2013-04-03 14:45:00,57.7,29.0,30.10,ESE,111,3.5,6.8,33,0.00,,---,0.00,VWS V14.01,2013-04-03 20:45:00,
2013-04-03 14:50:00,58.0,30.1,30.09,East,86,0.0,0.0,34,0.00,,---,0.00,VWS V14.01,2013-04-03 20:50:00,
2013-04-03 14:55:00,58.7,28.9,30.09,North,359,0.0,3.0,32,0.00,,---,0.00,VWS V14.01,2013-04-03 20:55:00,
2013-04-03 15:00:00,58.7,27.7,30.09,NNE,17,6.8,6.8,30,0.00,,---,0.00,VWS V14.01,2013-04-03 21:00:00,
2013-04-03 15:05:00,58.6,27.5,30.09,NNE,24,4.2,7.9,30,0.00,,---,0.00,VWS V14.01,2013-04-03 21:05:00,
2013-04-03 15:10:00,59.0,27.8,30.09,ENE,60,0.0,2.2,30,0.00,,---,0.00,VWS V14.01,2013-04-03 21:10:00,
2013-04-03 15:15:00,59.2,27.9,30.09,ENE,66,3.0,5.2,30,0.00,,---,0.00,VWS V14.01,2013-04-03 21:15:00,
2013-04-03 15:20:00,59.5,26.1,30.09,ESE,105,2.5,6.1,28,0.00,,---,0.00,VWS V14.01,2013-04-03 21:20:00,
2013-04-03 15:25:00,59.4,25.2,30.09,ESE,120,0.0,4.6,27,0.00,,---,0.00,VWS V14.01,2013-04-03 21:25:00,
2013-04-03 15:30:00,59.5,25.9,30.09,ESE,112,0.0,0.0,27,0.00,,---,0.00,VWS V14.01,2013-04-03 21:30:00,
2013-04-03 15:35:00,60.0,26.0,30.09,NE,39,0.0,0.0,27,0.00,,---,0.00,VWS V14.01,2013-04-03 21:35:00,
2013-04-03 15:40:00,60.1,24.9,30.09,ESE,104,8.8,9.8,26,0.00,,---,0.00,VWS V14.01,2013-04-03 21:40:00,
2013-04-03 15:45:00,60.1,25.3,30.08,ESE,121,0.0,6.0,26,0.00,,---,0.00,VWS V14.01,2013-04-03 21:45:00,
2013-04-03 15:51:00,60.1,25.1,30.08,East,97,0.0,3.2,26,0.00,,---,0.00,VWS V14.01,2013-04-03 21:51:00,
2013-04-03 15:56:00,60.2,25.1,30.08,NNE,22,3.2,5.6,26,0.00,,---,0.00,VWS V14.01,2013-04-03 21:56:00,
2013-04-03 16:01:00,60.3,24.9,30.08,NE,51,0.0,0.0,26,0.00,,---,0.00,VWS V14.01,2013-04-03 22:01:00,
2013-04-03 16:06:00,60.4,24.7,30.08,ESE,121,5.5,9.2,25,0.00,,---,0.00,VWS V14.01,2013-04-03 22:06:00,
2013-04-03 16:11:00,60.6,24.0,30.08,SE,138,0.0,5.3,24,0.00,,---,0.00,VWS V14.01,2013-04-03 22:11:00,
2013-04-03 16:16:00,60.8,24.2,30.07,SE,143,0.0,0.0,24,0.00,,---,0.00,VWS V14.01,2013-04-03 22:16:00,
2013-04-03 16:21:00,61.2,24.8,30.07,East,91,0.0,4.3,25,0.00,,---,0.00,VWS V14.01,2013-04-03 22:21:00,
2013-04-03 16:26:00,61.5,23.4,30.07,ENE,69,4.8,4.8,23,0.00,,---,0.00,VWS V14.01,2013-04-03 22:26:00,
2013-04-03 16:31:00,61.6,23.1,30.07,ENE,65,0.0,0.0,23,0.00,,---,0.00,VWS V14.01,2013-04-03 22:31:00,
2013-04-03 16:36:00,61.9,24.3,30.07,ENE,65,0.0,0.0,24,0.00,,---,0.00,VWS V14.01,2013-04-03 22:36:00,
2013-04-03 16:41:00,62.3,25.4,30.07,North,359,0.0,0.0,24,0.00,,---,0.00,VWS V14.01,2013-04-03 22:41:00,
2013-04-03 16:46:00,62.4,23.5,30.07,North,359,0.0,0.0,22,0.00,,---,0.00,VWS V14.01,2013-04-03 22:46:00,
2013-04-03 16:51:00,62.0,23.2,30.07,North,359,0.0,0.0,22,0.00,,---,0.00,VWS V14.01,2013-04-03 22:51:00,
2013-04-03 16:56:00,61.4,23.1,30.07,North,359,0.0,0.0,23,0.00,,---,0.00,VWS V14.01,2013-04-03 22:56:00,
2013-04-03 17:01:00,61.1,23.4,30.07,North,359,0.0,0.0,23,0.00,,---,0.00,VWS V14.01,2013-04-03 23:01:00,
2013-04-03 17:06:00,60.9,23.3,30.07,North,359,0.0,0.0,23,0.00,,---,0.00,VWS V14.01,2013-04-03 23:06:00,
2013-04-03 17:11:00,60.7,23.7,30.07,North,359,0.0,0.0,24,0.00,,---,0.00,VWS V14.01,2013-04-03 23:11:00,
2013-04-03 17:16:00,60.6,23.5,30.07,North,359,0.0,0.0,24,0.00,,---,0.00,VWS V14.01,2013-04-03 23:16:00,
2013-04-03 17:22:00,60.5,23.5,30.07,North,359,0.0,0.0,24,0.00,,---,0.00,VWS V14.01,2013-04-03 23:22:00,
2013-04-03 17:27:00,60.5,23.5,30.07,North,359,0.0,0.0,24,0.00,,---,0.00,VWS V14.01,2013-04-03 23:27:00,
2013-04-03 17:32:00,60.5,23.5,30.07,North,359,0.0,0.0,24,0.00,,---,0.00,VWS V14.01,2013-04-03 23:32:00,
2013-04-03 17:37:00,60.3,22.7,30.07,North,359,0.0,0.0,23,0.00,,---,0.00,VWS V14.01,2013-04-03 23:37:00,
2013-04-03 17:42:00,60.1,23.0,30.07,North,359,0.0,0.0,24,0.00,,---,0.00,VWS V14.01,2013-04-03 23:42:00,
2013-04-03 17:47:00,60.1,23.1,30.07,North,7,0.0,0.0,24,0.00,,---,0.00,VWS V14.01,2013-04-03 23:47:00,
2013-04-03 17:52:00,60.0,23.0,30.07,North,7,0.0,0.0,24,0.00,,---,0.00,VWS V14.01,2013-04-03 23:52:00,
2013-04-03 17:57:00,60.0,23.0,30.07,North,7,0.0,0.0,24,0.00,,---,0.00,VWS V14.01,2013-04-03 23:57:00,
2013-04-03 18:02:00,60.0,22.8,30.07,North,7,0.0,0.0,24,0.00,,---,0.00,VWS V14.01,2013-04-04 00:02:00,
2013-04-03 18:07:00,60.0,22.5,30.07,North,7,0.0,0.0,23,0.00,,---,0.00,VWS V14.01,2013-04-04 00:07:00,
2013-04-03 18:12:00,59.8,22.4,30.07,North,7,0.0,0.0,23,0.00,,---,0.00,VWS V14.01,2013-04-04 00:12:00,
2013-04-03 18:17:00,59.6,21.5,30.08,North,359,0.0,0.0,23,0.00,,---,0.00,VWS V14.01,2013-04-04 00:17:00,
2013-04-03 18:22:00,59.1,22.0,30.08,North,359,0.0,0.0,24,0.00,,---,0.00,VWS V14.01,2013-04-04 00:22:00,
2013-04-03 18:27:00,58.4,21.9,30.08,North,359,0.0,0.0,24,0.00,,---,0.00,VWS V14.01,2013-04-04 00:27:00,
2013-04-03 18:32:00,57.9,22.2,30.08,North,359,0.0,0.0,25,0.00,,---,0.00,VWS V14.01,2013-04-04 00:32:00,
2013-04-03 18:37:00,57.4,22.5,30.08,North,359,0.0,0.0,26,0.00,,---,0.00,VWS V14.01,2013-04-04 00:37:00,
2013-04-03 18:42:00,57.0,22.8,30.08,North,359,0.0,0.0,26,0.00,,---,0.00,VWS V14.01,2013-04-04 00:42:00,
2013-04-03 18:47:00,56.7,22.9,30.08,North,359,0.0,0.0,27,0.00,,---,0.00,VWS V14.01,2013-04-04 00:47:00,
2013-04-03 18:52:00,56.4,22.7,30.08,North,359,0.0,0.0,27,0.00,,---,0.00,VWS V14.01,2013-04-04 00:52:00,
2013-04-03 18:57:00,56.2,23.0,30.08,North,359,0.0,0.0,27,0.00,,---,0.00,VWS V14.01,2013-04-04 00:57:00,
2013-04-03 19:02:00,56.0,23.4,30.08,North,359,0.0,0.0,28,0.00,,---,0.00,VWS V14.01,2013-04-04 01:02:00,
2013-04-03 19:07:00,55.7,23.6,30.08,North,359,0.0,0.0,29,0.00,,---,0.00,VWS V14.01,2013-04-04 01:07:00,
2013-04-03 19:12:00,55.5,24.1,30.08,North,359,0.0,0.0,29,0.00,,---,0.00,VWS V14.01,2013-04-04 01:12:00,
2013-04-03 19:17:00,55.2,24.5,30.09,North,359,0.0,0.0,30,0.00,,---,0.00,VWS V14.01,2013-04-04 01:17:00,
2013-04-03 19:22:00,54.9,24.6,30.08,North,359,0.0,0.0,31,0.00,,---,0.00,VWS V14.01,2013-04-04 01:22:00,
2013-04-03 19:27:00,54.5,24.7,30.09,North,359,0.0,0.0,31,0.00,,---,0.00,VWS V14.01,2013-04-04 01:27:00,
2013-04-03 19:32:00,54.2,25.4,30.09,North,359,0.0,0.0,32,0.00,,---,0.00,VWS V14.01,2013-04-04 01:32:00,
2013-04-03 19:37:00,53.9,26.0,30.09,North,359,0.0,0.0,34,0.00,,---,0.00,VWS V14.01,2013-04-04 01:37:00,
2013-04-03 19:42:00,53.6,26.1,30.08,North,359,0.0,0.0,34,0.00,,---,0.00,VWS V14.01,2013-04-04 01:42:00,
2013-04-03 19:47:00,53.3,26.4,30.08,North,359,0.0,0.0,35,0.00,,---,0.00,VWS V14.01,2013-04-04 01:47:00,
2013-04-03 19:52:00,52.8,26.5,30.08,North,359,0.0,0.0,36,0.00,,---,0.00,VWS V14.01,2013-04-04 01:52:00,
2013-04-03 19:57:00,52.5,26.8,30.09,North,359,0.0,0.0,37,0.00,,---,0.00,VWS V14.01,2013-04-04 01:57:00,
2013-04-03 20:02:00,52.3,26.8,30.09,North,359,0.0,0.0,37,0.00,,---,0.00,VWS V14.01,2013-04-04 02:02:00,
2013-04-03 20:07:00,52.0,26.4,30.09,North,359,0.0,0.0,37,0.00,,---,0.00,VWS V14.01,2013-04-04 02:07:00,
2013-04-03 20:12:00,51.9,26.3,30.09,North,359,0.0,0.0,37,0.00,,---,0.00,VWS V14.01,2013-04-04 02:12:00,
2013-04-03 20:17:00,51.8,26.3,30.10,North,359,0.0,0.0,37,0.00,,---,0.00,VWS V14.01,2013-04-04 02:17:00,
2013-04-03 20:22:00,51.6,27.4,30.10,North,359,0.0,0.0,39,0.00,,---,0.00,VWS V14.01,2013-04-04 02:22:00,
2013-04-03 20:27:00,51.4,27.9,30.11,North,359,0.0,0.0,40,0.00,,---,0.00,VWS V14.01,2013-04-04 02:27:00,
2013-04-03 20:32:00,51.0,27.8,30.11,North,359,0.0,0.0,40,0.00,,---,0.00,VWS V14.01,2013-04-04 02:32:00,
2013-04-03 20:37:00,50.7,27.8,30.11,North,359,0.0,0.0,41,0.00,,---,0.00,VWS V14.01,2013-04-04 02:37:00,
2013-04-03 20:42:00,50.5,28.0,30.12,North,359,0.0,0.0,42,0.00,,---,0.00,VWS V14.01,2013-04-04 02:42:00,
2013-04-03 20:47:00,50.2,28.8,30.12,North,359,0.0,0.0,43,0.00,,---,0.00,VWS V14.01,2013-04-04 02:47:00,
2013-04-03 20:52:00,49.9,28.9,30.11,North,359,0.0,0.0,44,0.00,,---,0.00,VWS V14.01,2013-04-04 02:52:00,
2013-04-03 20:58:00,49.5,28.4,30.12,North,359,0.0,0.0,44,0.00,,---,0.00,VWS V14.01,2013-04-04 02:58:00,
2013-04-03 20:59:00,47.0,30.5,30.14,North,359,0.0,0.0,52,0.00,,---,0.00,VWS V14.01,2013-04-04 02:59:00,
2013-04-03 21:00:00,47.0,30.6,30.14,North,359,0.0,0.0,53,0.00,,---,0.00,VWS V14.01,2013-04-04 03:00:00,
2013-04-03 21:01:00,46.9,30.6,30.14,North,359,0.0,0.0,53,0.00,,---,0.00,VWS V14.01,2013-04-04 03:01:00,
2013-04-03 21:02:00,49.3,28.3,30.12,North,359,0.0,0.0,44,0.00,,---,0.00,VWS V14.01,2013-04-04 03:02:00,
2013-04-03 21:03:00,46.9,30.7,30.14,North,359,0.0,0.0,53,0.00,,---,0.00,VWS V14.01,2013-04-04 03:03:00,
2013-04-03 21:04:00,46.8,30.8,30.14,North,359,0.0,0.0,53,0.00,,---,0.00,VWS V14.01,2013-04-04 03:04:00,
2013-04-03 21:05:00,46.8,30.9,30.14,North,359,0.0,0.0,54,0.00,,---,0.00,VWS V14.01,2013-04-04 03:05:00,
2013-04-03 21:06:00,46.8,31.0,30.14,North,359,0.0,0.0,54,0.00,,---,0.00,VWS V14.01,2013-04-04 03:06:00,
2013-04-03 21:07:00,49.1,28.6,30.13,North,359,0.0,0.0,45,0.00,,---,0.00,VWS V14.01,2013-04-04 03:07:00,
2013-04-03 21:13:00,48.8,28.6,30.13,North,359,0.0,0.0,45,0.00,,---,0.00,VWS V14.01,2013-04-04 03:13:00,
2013-04-03 21:18:00,48.4,28.6,30.13,North,359,0.0,0.0,46,0.00,,---,0.00,VWS V14.01,2013-04-04 03:18:00,
2013-04-03 21:23:00,48.4,29.1,30.13,North,359,0.0,0.0,47,0.00,,---,0.00,VWS V14.01,2013-04-04 03:23:00,
2013-04-03 21:28:00,48.2,29.4,30.14,North,359,0.0,0.0,48,0.00,,---,0.00,VWS V14.01,2013-04-04 03:28:00,
2013-04-03 21:33:00,48.0,29.5,30.14,North,359,0.0,0.0,48,0.00,,---,0.00,VWS V14.01,2013-04-04 03:33:00,
2013-04-03 21:38:00,47.7,29.6,30.14,North,359,0.0,0.0,49,0.00,,---,0.00,VWS V14.01,2013-04-04 03:38:00,
2013-04-03 21:43:00,47.5,30.0,30.14,North,359,0.0,0.0,50,0.00,,---,0.00,VWS V14.01,2013-04-04 03:43:00,
2013-04-03 21:48:00,47.4,30.2,30.14,North,359,0.0,0.0,51,0.00,,---,0.00,VWS V14.01,2013-04-04 03:48:00,
2013-04-03 21:53:00,47.3,30.5,30.14,North,359,0.0,0.0,52,0.00,,---,0.00,VWS V14.01,2013-04-04 03:53:00,
2013-04-03 21:58:00,47.1,30.4,30.14,North,359,0.0,0.0,52,0.00,,---,0.00,VWS V14.01,2013-04-04 03:58:00,
2013-04-03 22:07:00,46.7,30.9,30.14,North,359,0.0,0.0,54,0.00,,---,0.00,VWS V14.01,2013-04-04 04:07:00,
2013-04-03 22:12:00,46.6,30.9,30.15,North,359,0.0,0.0,54,0.00,,---,0.00,VWS V14.01,2013-04-04 04:12:00,
2013-04-03 22:17:00,46.5,31.3,30.15,North,359,0.0,0.0,55,0.00,,---,0.00,VWS V14.01,2013-04-04 04:17:00,
2013-04-03 22:22:00,46.4,31.5,30.15,North,359,0.0,0.0,56,0.00,,---,0.00,VWS V14.01,2013-04-04 04:22:00,
2013-04-03 22:27:00,46.1,31.2,30.15,North,359,0.0,0.0,56,0.00,,---,0.00,VWS V14.01,2013-04-04 04:27:00,
2013-04-03 22:32:00,46.0,31.4,30.15,North,359,0.0,0.0,56,0.00,,---,0.00,VWS V14.01,2013-04-04 04:32:00,
2013-04-03 22:37:00,46.0,31.4,30.15,North,359,0.0,0.0,56,0.00,,---,0.00,VWS V14.01,2013-04-04 04:37:00,
2013-04-03 22:42:00,45.9,31.5,30.16,North,359,0.0,0.0,57,0.00,,---,0.00,VWS V14.01,2013-04-04 04:42:00,
2013-04-03 22:47:00,45.9,31.5,30.16,North,359,0.0,0.0,57,0.00,,---,0.00,VWS V14.01,2013-04-04 04:47:00,
2013-04-03 22:52:00,45.6,31.4,30.16,North,359,0.0,0.0,57,0.00,,---,0.00,VWS V14.01,2013-04-04 04:52:00,
2013-04-03 22:57:00,45.5,31.0,30.16,North,359,0.0,0.0,56,0.00,,---,0.00,VWS V14.01,2013-04-04 04:57:00,
2013-04-03 22:59:00,37.4,35.3,30.13,SE,125,0.0,0.0,92,0.00,,---,0.00,VWS V14.01,2013-04-04 04:59:00,
2013-04-03 23:00:00,37.4,35.3,30.13,SE,125,0.0,0.0,92,0.00,,---,0.00,VWS V14.01,2013-04-04 05:00:00,
2013-04-03 23:01:00,37.4,35.3,30.13,SE,125,0.0,0.0,92,0.00,,---,0.00,VWS V14.01,2013-04-04 05:01:00,
2013-04-03 23:02:00,45.5,31.0,30.16,North,359,0.0,0.0,57,0.00,,---,0.00,VWS V14.01,2013-04-04 05:02:00,
2013-04-03 23:03:00,37.5,35.4,30.13,SE,125,0.0,0.0,92,0.00,,---,0.00,VWS V14.01,2013-04-04 05:03:00,
2013-04-03 23:04:00,37.5,35.4,30.13,SE,125,0.0,0.0,92,0.00,,---,0.00,VWS V14.01,2013-04-04 05:04:00,
2013-04-03 23:05:00,37.6,35.5,30.13,SE,125,0.0,0.0,92,0.00,,---,0.00,VWS V14.01,2013-04-04 05:05:00,
2013-04-03 23:06:00,37.6,35.5,30.13,SE,125,0.0,0.0,92,0.00,,---,0.00,VWS V14.01,2013-04-04 05:06:00,
2013-04-03 23:07:00,45.5,31.1,30.16,North,359,0.0,0.0,57,0.00,,---,0.00,VWS V14.01,2013-04-04 05:07:00,
2013-04-03 23:08:00,37.7,35.6,30.13,SE,125,0.0,0.0,92,0.00,,---,0.00,VWS V14.01,2013-04-04 05:08:00,
2013-04-03 23:09:00,37.6,35.5,30.13,SE,125,0.0,0.0,92,0.00,,---,0.00,VWS V14.01,2013-04-04 05:09:00,
2013-04-03 23:10:00,37.6,35.5,30.13,SE,125,0.0,0.0,92,0.00,,---,0.00,VWS V14.01,2013-04-04 05:10:00,
2013-04-03 23:11:00,37.6,35.5,30.13,SE,125,0.0,0.0,92,0.00,,---,0.00,VWS V14.01,2013-04-04 05:11:00,
2013-04-03 23:12:00,45.6,31.4,30.16,North,359,0.0,0.0,57,0.00,,---,0.00,VWS V14.01,2013-04-04 05:12:00,
2013-04-03 23:13:00,37.6,35.5,30.13,SE,125,0.0,0.0,92,0.00,,---,0.00,VWS V14.01,2013-04-04 05:13:00,
2013-04-03 23:14:00,37.6,35.5,30.13,SE,125,0.0,0.0,92,0.00,,---,0.00,VWS V14.01,2013-04-04 05:14:00,
2013-04-03 23:15:00,37.6,35.5,30.13,SE,125,0.0,0.0,92,0.00,,---,0.00,VWS V14.01,2013-04-04 05:15:00,
2013-04-03 23:16:00,37.6,35.5,30.13,SE,125,0.0,0.0,92,0.00,,---,0.00,VWS V14.01,2013-04-04 05:16:00,
2013-04-03 23:17:00,45.6,31.4,30.16,North,359,0.0,0.0,57,0.00,,---,0.00,VWS V14.01,2013-04-04 05:17:00,
2013-04-03 23:18:00,37.6,35.5,30.13,SE,125,0.0,0.0,92,0.00,,---,0.00,VWS V14.01,2013-04-04 05:18:00,
2013-04-03 23:19:00,37.7,35.6,30.13,SE,125,0.0,0.0,92,0.00,,---,0.00,VWS V14.01,2013-04-04 05:19:00,
2013-04-03 23:20:00,37.7,35.6,30.13,SE,125,0.0,0.0,92,0.00,,---,0.00,VWS V14.01,2013-04-04 05:20:00,
2013-04-03 23:21:00,37.7,35.6,30.13,SE,125,0.0,0.0,92,0.00,,---,0.00,VWS V14.01,2013-04-04 05:21:00,
2013-04-03 23:22:00,37.7,35.6,30.13,SE,125,0.0,0.0,92,0.00,,---,0.00,VWS V14.01,2013-04-04 05:22:00,
2013-04-03 23:23:00,45.6,31.3,30.16,North,359,0.0,0.0,57,0.00,,---,0.00,VWS V14.01,2013-04-04 05:23:00,
2013-04-03 23:24:00,37.7,35.6,30.13,SE,125,0.0,0.0,92,0.00,,---,0.00,VWS V14.01,2013-04-04 05:24:00,
2013-04-03 23:25:00,37.7,35.6,30.13,SE,125,0.0,0.0,92,0.00,,---,0.00,VWS V14.01,2013-04-04 05:25:00,
2013-04-03 23:26:00,37.7,35.6,30.13,SE,125,0.0,0.0,92,0.00,,---,0.00,VWS V14.01,2013-04-04 05:26:00,
2013-04-03 23:27:00,37.7,35.6,30.13,SE,125,0.0,0.0,92,0.00,,---,0.00,VWS V14.01,2013-04-04 05:27:00,
2013-04-03 23:28:00,45.5,31.4,30.17,North,359,0.0,0.0,58,0.00,,---,0.00,VWS V14.01,2013-04-04 05:28:00,
2013-04-03 23:29:00,37.7,35.6,30.13,SE,125,0.0,0.0,92,0.00,,---,0.00,VWS V14.01,2013-04-04 05:29:00,
2013-04-03 23:30:00,37.7,35.6,30.13,SE,125,0.0,0.0,92,0.00,,---,0.00,VWS V14.01,2013-04-04 05:30:00,
2013-04-03 23:31:00,37.7,35.6,30.13,SE,125,0.0,0.0,92,0.00,,---,0.00,VWS V14.01,2013-04-04 05:31:00,
2013-04-03 23:32:00,37.8,35.7,30.13,SE,125,0.0,0.0,92,0.00,,---,0.00,VWS V14.01,2013-04-04 05:32:00,
2013-04-03 23:33:00,45.4,31.5,30.16,North,359,0.0,0.0,58,0.00,,---,0.00,VWS V14.01,2013-04-04 05:33:00,
2013-04-03 23:34:00,37.8,35.7,30.13,SE,125,0.0,0.0,92,0.00,,---,0.00,VWS V14.01,2013-04-04 05:34:00,
2013-04-03 23:35:00,37.9,35.8,30.13,SE,125,0.0,0.0,92,0.00,,---,0.00,VWS V14.01,2013-04-04 05:35:00,
2013-04-03 23:36:00,37.8,35.7,30.13,SE,125,0.0,0.0,92,0.00,,---,0.00,VWS V14.01,2013-04-04 05:36:00,
2013-04-03 23:37:00,37.9,35.8,30.13,SE,125,0.0,0.0,92,0.00,,---,0.00,VWS V14.01,2013-04-04 05:37:00,
2013-04-03 23:38:00,45.3,31.5,30.16,North,359,0.0,0.0,58,0.00,,---,0.00,VWS V14.01,2013-04-04 05:38:00,
2013-04-03 23:39:00,37.9,35.8,30.13,SE,125,0.0,0.0,92,0.00,,---,0.00,VWS V14.01,2013-04-04 05:39:00,
2013-04-03 23:40:00,37.9,35.8,30.13,SE,125,0.0,0.0,92,0.00,,---,0.00,VWS V14.01,2013-04-04 05:40:00,
2013-04-03 23:41:00,37.9,35.8,30.13,SE,125,0.0,0.0,92,0.00,,---,0.00,VWS V14.01,2013-04-04 05:41:00,
2013-04-03 23:42:00,37.9,35.8,30.13,SE,125,0.0,0.0,92,0.00,,---,0.00,VWS V14.01,2013-04-04 05:42:00,
2013-04-03 23:43:00,45.1,31.6,30.16,North,359,0.0,0.0,59,0.00,,---,0.00,VWS V14.01,2013-04-04 05:43:00,
2013-04-03 23:44:00,37.9,35.8,30.12,SE,125,0.0,0.0,92,0.00,,---,0.00,VWS V14.01,2013-04-04 05:44:00,
2013-04-03 23:45:00,37.9,35.8,30.13,SE,125,0.0,0.0,92,0.00,,---,0.00,VWS V14.01,2013-04-04 05:45:00,
2013-04-03 23:46:00,37.9,35.8,30.13,SE,125,0.0,0.0,92,0.00,,---,0.00,VWS V14.01,2013-04-04 05:46:00,
2013-04-03 23:47:00,37.9,35.8,30.13,SE,125,0.0,0.0,92,0.00,,---,0.00,VWS V14.01,2013-04-04 05:47:00,
2013-04-03 23:48:00,44.9,31.5,30.16,North,359,0.0,0.0,59,0.00,,---,0.00,VWS V14.01,2013-04-04 05:48:00,
2013-04-03 23:49:00,37.9,35.8,30.13,SE,125,0.0,0.0,92,0.00,,---,0.00,VWS V14.01,2013-04-04 05:49:00,
2013-04-03 23:50:00,38.0,35.9,30.12,SE,125,0.0,0.0,92,0.00,,---,0.00,VWS V14.01,2013-04-04 05:50:00,
2013-04-03 23:51:00,38.0,35.9,30.13,SE,125,0.0,0.0,92,0.00,,---,0.00,VWS V14.01,2013-04-04 05:51:00,
2013-04-03 23:52:00,38.0,35.9,30.13,SE,125,0.0,0.0,92,0.00,,---,0.00,VWS V14.01,2013-04-04 05:52:00,
2013-04-03 23:53:00,44.8,31.6,30.16,North,359,0.0,0.0,60,0.00,,---,0.00,VWS V14.01,2013-04-04 05:53:00,
2013-04-03 23:54:00,38.0,35.9,30.13,SE,125,0.0,0.0,92,0.00,,---,0.00,VWS V14.01,2013-04-04 05:54:00,
2013-04-03 23:55:00,38.0,35.9,30.13,SE,125,0.0,0.0,92,0.00,,---,0.00,VWS V14.01,2013-04-04 05:55:00,
2013-04-03 23:56:00,38.0,35.9,30.13,SE,125,0.0,0.0,92,0.00,,---,0.00,VWS V14.01,2013-04-04 05:56:00,
2013-04-03 23:58:00,44.6,31.7,30.16,North,359,0.0,0.0,60,0.00,,---,0.00,VWS V14.01,2013-04-04 05:58:00,
2013-04-03 23:59:00,38.1,36.0,30.13,SE,125,0.0,0.0,92,0.00,,---,0.00,VWS V14.01,2013-04-04 05:59:00,